createdAt,value
2023-01-30T00:02:06.081Z,18.15
2023-01-30T00:04:34.578Z,21.13
2023-01-30T00:07:03.157Z,25.45
2023-01-30T00:09:31.771Z,19.50
2023-01-30T00:12:00.164Z,19.52
2023-01-30T00:14:28.774Z,22.67
2023-01-30T00:16:57.253Z,30.05
2023-01-30T00:19:25.951Z,24.75
2023-01-30T00:21:54.149Z,22.83
2023-01-30T00:24:22.715Z,23.98
2023-01-30T00:26:51.491Z,27.77
2023-01-30T00:29:19.910Z,24.52
2023-01-30T00:31:48.677Z,43.17
2023-01-30T00:34:18.434Z,27.63
2023-01-30T00:36:53.278Z,22.33
2023-01-30T00:39:28.068Z,24.08
2023-01-30T00:42:15.275Z,26.13
2023-01-30T00:45:02.290Z,26.20
2023-01-30T00:47:31.007Z,25.80
2023-01-30T00:49:59.443Z,31.40
2023-01-30T00:52:28.218Z,32.55
2023-01-30T00:54:56.813Z,23.42
2023-01-30T00:57:25.399Z,30.30
2023-01-30T00:59:54.239Z,27.80
2023-01-30T01:02:22.790Z,38.58
2023-01-30T01:04:51.508Z,24.42
2023-01-30T01:07:21.291Z,30.38
2023-01-30T01:09:50.300Z,28.55
2023-01-30T01:12:20.058Z,35.70
2023-01-30T01:14:48.663Z,34.67
2023-01-30T01:17:17.373Z,24.70
2023-01-30T01:19:46.080Z,29.55
2023-01-30T01:22:14.742Z,23.95
2023-01-30T01:24:43.259Z,26.10
2023-01-30T01:27:11.906Z,27.83
2023-01-30T01:29:40.612Z,24.20
2023-01-30T01:32:09.201Z,26.02
2023-01-30T01:34:37.850Z,27.33
2023-01-30T01:37:07.125Z,21.38
2023-01-30T01:39:55.600Z,20.58
2023-01-30T01:42:27.490Z,25.85
2023-01-30T01:45:17.512Z,28.30
2023-01-30T01:48:06.532Z,25.63
2023-01-30T01:50:44.813Z,23.95
2023-01-30T01:53:17.113Z,26.35
2023-01-30T01:55:50.563Z,22.63
2023-01-30T01:58:48.961Z,26.70
2023-01-30T02:01:19.939Z,24.52
2023-01-30T02:04:00.189Z,22.23
2023-01-30T02:06:30.331Z,22.58
2023-01-30T02:09:06.418Z,24.15
2023-01-30T02:11:34.983Z,31.02
2023-01-30T02:14:07.703Z,28.70
2023-01-30T02:16:37.943Z,24.02
2023-01-30T02:19:26.552Z,26.80
2023-01-30T02:22:16.857Z,22.58
2023-01-30T02:25:32.310Z,22.13
2023-01-30T02:31:07.999Z,17.08
2023-01-30T02:34:13.911Z,23.63
2023-01-30T02:37:00.546Z,22.60
2023-01-30T02:40:06.214Z,23.35
2023-01-30T02:43:00.012Z,21.95
2023-01-30T02:45:55.264Z,19.93
2023-01-30T02:48:37.138Z,25.05
2023-01-30T02:51:19.071Z,22.40
2023-01-30T02:53:50.359Z,21.35
2023-01-30T02:56:19.845Z,19.02
2023-01-30T02:58:57.909Z,26.65
2023-01-30T03:02:08.477Z,25.25
2023-01-30T03:04:50.081Z,19.80
2023-01-30T03:07:26.341Z,21.33
2023-01-30T03:10:09.021Z,26.90
2023-01-30T03:12:51.779Z,20.00
2023-01-30T03:15:42.319Z,21.90
2023-01-30T03:18:11.679Z,19.20
2023-01-30T03:20:42.180Z,23.73
2023-01-30T03:23:13.595Z,24.17
2023-01-30T03:25:44.872Z,19.65
2023-01-30T03:28:17.790Z,21.60
2023-01-30T03:30:50.385Z,20.73
2023-01-30T03:33:18.976Z,27.30
2023-01-30T03:35:52.145Z,21.42
2023-01-30T03:38:26.498Z,24.58
2023-01-30T03:40:55.388Z,18.13
2023-01-30T03:43:23.927Z,21.05
2023-01-30T03:45:52.679Z,22.70
2023-01-30T03:48:21.708Z,20.88
2023-01-30T03:50:50.270Z,17.27
2023-01-30T03:53:18.937Z,19.20
2023-01-30T03:55:47.515Z,18.08
2023-01-30T03:58:18.251Z,22.30
2023-01-30T04:00:47.834Z,22.77
2023-01-30T04:03:16.579Z,19.80
2023-01-30T04:05:45.080Z,22.33
2023-01-30T04:08:14.259Z,20.63
2023-01-30T04:10:43.002Z,20.00
2023-01-30T04:13:12.584Z,21.05
2023-01-30T04:15:41.284Z,24.40
2023-01-30T04:18:39.447Z,18.98
2023-01-30T04:21:15.303Z,19.77
2023-01-30T04:23:44.321Z,19.10
2023-01-30T04:26:14.698Z,18.95
2023-01-30T04:28:45.245Z,20.15
2023-01-30T04:31:14.879Z,20.77
2023-01-30T04:33:58.715Z,22.50
2023-01-30T04:36:29.593Z,17.60
2023-01-30T04:38:58.972Z,25.40
2023-01-30T04:41:30.564Z,21.67
2023-01-30T04:44:02.012Z,19.30
2023-01-30T04:46:39.951Z,26.30
2023-01-30T04:49:10.021Z,21.63
2023-01-30T04:51:39.030Z,20.48
2023-01-30T04:54:08.231Z,19.88
2023-01-30T04:56:36.808Z,19.77
2023-01-30T04:59:06.708Z,17.63
2023-01-30T05:01:40.718Z,23.38
2023-01-30T05:04:09.704Z,25.50
2023-01-30T05:06:38.637Z,22.02
2023-01-30T05:09:07.923Z,19.95
2023-01-30T05:11:37.257Z,21.73
2023-01-30T05:14:05.900Z,23.20
2023-01-30T05:16:34.526Z,25.60
2023-01-30T05:19:03.076Z,20.15
2023-01-30T05:21:31.533Z,24.05
2023-01-30T05:24:00.282Z,26.42
2023-01-30T05:26:29.015Z,24.25
2023-01-30T05:28:58.801Z,21.33
2023-01-30T05:31:27.546Z,18.30
2023-01-30T05:33:56.143Z,22.58
2023-01-30T05:36:25.523Z,23.83
2023-01-30T05:38:54.480Z,20.88
2023-01-30T05:41:23.440Z,22.52
2023-01-30T05:43:52.329Z,21.52
2023-01-30T05:46:21.441Z,19.60
2023-01-30T05:48:50.261Z,20.92
2023-01-30T05:51:22.142Z,24.27
2023-01-30T05:53:51.537Z,20.55
2023-01-30T05:56:21.225Z,27.92
2023-01-30T05:58:55.947Z,21.05
2023-01-30T06:01:25.068Z,24.60
2023-01-30T06:03:54.351Z,29.55
2023-01-30T06:06:24.284Z,26.55
2023-01-30T06:08:57.063Z,23.08
2023-01-30T06:11:26.614Z,24.23
2023-01-30T06:13:55.363Z,26.35
2023-01-30T06:16:24.229Z,21.50
2023-01-30T06:18:53.203Z,21.52
2023-01-30T06:21:21.842Z,22.67
2023-01-30T06:23:50.644Z,25.60
2023-01-30T06:26:19.322Z,26.50
2023-01-30T06:28:48.925Z,25.60
2023-01-30T06:31:19.401Z,24.30
2023-01-30T06:33:50.142Z,26.33
2023-01-30T06:36:18.744Z,28.33
2023-01-30T06:38:47.451Z,28.38
2023-01-30T06:41:16.105Z,27.30
2023-01-30T06:43:44.880Z,27.58
2023-01-30T06:46:13.588Z,29.75
2023-01-30T06:48:42.184Z,27.42
2023-01-30T06:51:13.941Z,23.17
2023-01-30T06:53:42.563Z,29.27
2023-01-30T06:56:11.341Z,25.63
2023-01-30T06:58:40.074Z,25.08
2023-01-30T07:01:09.072Z,23.63
2023-01-30T07:03:37.679Z,23.98
2023-01-30T07:06:06.188Z,22.88
2023-01-30T07:08:36.920Z,28.92
2023-01-30T07:11:06.228Z,24.10
2023-01-30T07:13:34.757Z,19.38
2023-01-30T07:16:03.233Z,23.08
2023-01-30T07:18:32.080Z,22.55
2023-01-30T07:21:00.743Z,23.85
2023-01-30T07:23:29.380Z,23.45
2023-01-30T07:25:57.703Z,23.30
2023-01-30T07:28:26.363Z,22.13
2023-01-30T07:30:54.913Z,20.50
2023-01-30T07:33:23.607Z,20.13
2023-01-30T07:35:54.761Z,21.38
2023-01-30T07:38:23.462Z,22.40
2023-01-30T07:40:52.060Z,17.95
2023-01-30T07:43:20.759Z,19.15
2023-01-30T07:45:49.796Z,19.45
2023-01-30T07:48:20.367Z,17.15
2023-01-30T07:50:49.198Z,17.90
2023-01-30T07:53:19.350Z,19.55
2023-01-30T07:55:48.075Z,19.20
2023-01-30T07:58:17.630Z,20.63
2023-01-30T08:00:46.610Z,20.70
2023-01-30T08:03:16.879Z,22.25
2023-01-30T08:05:47.906Z,22.17
2023-01-30T08:08:17.059Z,22.55
2023-01-30T08:10:45.651Z,21.85
2023-01-30T08:13:14.215Z,19.98
2023-01-30T08:15:42.744Z,25.00
2023-01-30T08:18:11.335Z,24.40
2023-01-30T08:20:39.841Z,20.48
2023-01-30T08:23:08.473Z,22.52
2023-01-30T08:25:37.346Z,20.17
2023-01-30T08:28:05.956Z,20.73
2023-01-30T08:30:34.643Z,22.95
2023-01-30T08:33:03.626Z,24.75
2023-01-30T08:35:32.542Z,20.42
2023-01-30T08:38:01.207Z,18.52
2023-01-30T08:40:30.135Z,20.83
2023-01-30T08:42:58.808Z,22.30
2023-01-30T08:45:27.360Z,18.17
2023-01-30T08:47:59.948Z,21.95
2023-01-30T08:50:29.184Z,23.35
2023-01-30T08:52:57.934Z,19.42
2023-01-30T08:55:26.671Z,19.75
2023-01-30T08:57:57.769Z,20.30
2023-01-30T09:00:26.744Z,24.27
2023-01-30T09:02:59.468Z,20.02
2023-01-30T09:05:28.235Z,26.17
2023-01-30T09:07:57.064Z,23.35
2023-01-30T09:10:25.796Z,28.83
2023-01-30T09:12:54.286Z,23.90
2023-01-30T09:15:22.976Z,19.92
2023-01-30T09:17:53.405Z,22.20
2023-01-30T09:20:22.225Z,22.02
2023-01-30T09:22:50.875Z,29.73
2023-01-30T09:25:19.380Z,23.48
2023-01-30T09:27:52.135Z,23.55
2023-01-30T09:30:21.659Z,24.50
2023-01-30T09:32:50.410Z,25.58
2023-01-30T09:35:19.107Z,26.40
2023-01-30T09:37:49.120Z,24.02
2023-01-30T09:40:25.720Z,21.35
2023-01-30T09:43:11.812Z,22.55
2023-01-30T09:46:05.187Z,19.67
2023-01-30T09:48:44.724Z,19.30
2023-01-30T09:51:31.873Z,16.88
2023-01-30T09:54:04.070Z,25.08
2023-01-30T09:56:32.652Z,23.08
2023-01-30T09:59:05.039Z,19.75
2023-01-30T10:01:57.312Z,19.52
2023-01-30T10:04:35.540Z,32.70
2023-01-30T10:07:37.156Z,22.95
2023-01-30T10:10:12.194Z,33.08
2023-01-30T10:13:15.256Z,22.98
2023-01-30T10:16:13.253Z,21.67
2023-01-30T10:18:58.976Z,20.83
2023-01-30T10:21:56.691Z,22.75
2023-01-30T10:24:40.891Z,20.60
2023-01-30T10:27:16.857Z,24.08
2023-01-30T10:29:57.747Z,27.65
2023-01-30T10:32:32.444Z,31.98
2023-01-30T10:35:09.266Z,28.80
2023-01-30T10:37:51.207Z,29.30
2023-01-30T10:40:58.989Z,29.25
2023-01-30T10:43:39.124Z,26.58
2023-01-30T10:46:36.581Z,30.23
2023-01-30T10:49:13.856Z,22.90
2023-01-30T10:52:13.805Z,26.23
2023-01-30T10:54:45.359Z,17.20
2023-01-30T10:57:26.316Z,19.75
2023-01-30T11:00:06.403Z,20.15
2023-01-30T11:02:41.116Z,22.77
2023-01-30T11:05:19.731Z,23.45
2023-01-30T11:07:49.232Z,21.73
2023-01-30T11:10:22.845Z,21.00
2023-01-30T11:13:11.503Z,20.65
2023-01-30T11:15:41.527Z,24.45
2023-01-30T11:18:49.731Z,20.90
2023-01-30T11:21:11.026Z,15.30
2023-01-30T11:23:44.181Z,23.85
2023-01-30T11:26:41.518Z,23.63
2023-01-30T11:29:35.816Z,20.70
2023-01-30T11:32:07.177Z,18.73
2023-01-30T11:34:35.977Z,18.38
2023-01-30T11:37:34.237Z,27.60
2023-01-30T11:40:22.234Z,20.45
2023-01-30T11:42:53.323Z,21.15
2023-01-30T11:45:30.859Z,20.83
2023-01-30T11:48:04.995Z,20.90
2023-01-30T11:51:03.075Z,18.15
2023-01-30T11:53:45.953Z,20.02
2023-01-30T11:56:24.732Z,17.45
2023-01-30T11:59:00.994Z,28.40
2023-01-30T12:01:37.907Z,23.63
2023-01-30T12:04:12.728Z,27.45
2023-01-30T12:09:41.134Z,28.20
2023-01-30T12:12:46.959Z,26.58
2023-01-30T12:15:18.295Z,22.75
2023-01-30T12:18:04.922Z,23.23
2023-01-30T12:20:48.576Z,31.15
2023-01-30T12:23:25.847Z,23.63
2023-01-30T12:26:01.912Z,31.45
2023-01-30T12:29:13.635Z,24.33
2023-01-30T12:31:49.412Z,28.38
2023-01-30T12:34:18.650Z,23.20
2023-01-30T12:36:53.032Z,26.83
2023-01-30T12:39:35.618Z,30.15
2023-01-30T12:42:04.314Z,29.77
2023-01-30T12:44:42.417Z,27.45
2023-01-30T12:47:29.057Z,24.50
2023-01-30T12:50:37.013Z,38.42
2023-01-30T12:53:42.660Z,35.95
2023-01-30T12:58:46.293Z,28.05
2023-01-30T13:01:35.384Z,25.83
2023-01-30T13:04:31.813Z,29.45
2023-01-30T13:07:18.675Z,38.20
2023-01-30T13:10:12.560Z,34.20
2023-01-30T13:12:48.396Z,34.95
2023-01-30T13:15:39.373Z,31.52
2023-01-30T13:18:18.732Z,30.92
2023-01-30T13:21:33.569Z,40.65
2023-01-30T13:24:19.840Z,32.25
2023-01-30T13:26:51.911Z,27.65
2023-01-30T13:29:29.982Z,33.45
2023-01-30T13:32:03.371Z,30.33
2023-01-30T13:34:36.063Z,26.52
2023-01-30T13:37:12.395Z,25.50
2023-01-30T13:39:52.480Z,37.85
2023-01-30T13:42:32.923Z,35.13
2023-01-30T13:45:03.657Z,32.42
2023-01-30T13:47:40.808Z,28.60
2023-01-30T13:50:28.094Z,25.02
2023-01-30T13:53:11.857Z,30.42
2023-01-30T13:55:57.111Z,26.02
2023-01-30T13:58:44.795Z,26.92
2023-01-30T14:01:14.862Z,20.38
2023-01-30T14:03:44.993Z,27.65
2023-01-30T14:06:37.578Z,20.08
2023-01-30T14:09:20.231Z,22.30
2023-01-30T14:11:50.736Z,23.73
2023-01-30T14:14:31.933Z,26.13
2023-01-30T14:17:16.314Z,23.40
2023-01-30T14:20:21.649Z,24.42
2023-01-30T14:25:33.613Z,23.40
2023-01-30T14:28:02.606Z,24.00
2023-01-30T14:30:48.364Z,17.75
2023-01-30T14:33:22.162Z,34.70
2023-01-30T14:36:00.091Z,26.23
2023-01-30T14:38:36.857Z,28.33
2023-01-30T14:41:05.145Z,20.67
2023-01-30T14:43:43.044Z,31.08
2023-01-30T14:46:21.345Z,25.60
2023-01-30T14:49:01.673Z,26.73
2023-01-30T14:51:30.400Z,22.52
2023-01-30T14:54:14.242Z,24.65
2023-01-30T14:56:45.588Z,26.63
2023-01-30T14:59:17.410Z,28.77
2023-01-30T15:01:58.591Z,27.13
2023-01-30T15:04:52.702Z,23.05
2023-01-30T15:07:27.472Z,28.93
2023-01-30T15:09:58.648Z,25.98
2023-01-30T15:12:40.511Z,25.60
2023-01-30T15:15:28.574Z,28.02
2023-01-30T15:18:18.571Z,27.95
2023-01-30T15:21:38.012Z,25.10
2023-01-30T15:24:41.508Z,23.85
2023-01-30T15:27:35.856Z,25.98
2023-01-30T15:30:24.752Z,25.77
2023-01-30T15:33:19.864Z,24.27
2023-01-30T15:35:51.794Z,25.45
2023-01-30T15:38:30.726Z,26.45
2023-01-30T15:41:03.821Z,28.23
2023-01-30T15:44:11.716Z,29.60
2023-01-30T15:47:16.645Z,23.98
2023-01-30T15:50:05.528Z,33.47
2023-01-30T15:52:45.764Z,32.50
2023-01-30T15:55:29.473Z,24.48
2023-01-30T15:58:03.790Z,23.30
2023-01-30T16:00:37.311Z,28.65
2023-01-30T16:03:11.143Z,25.02
2023-01-30T16:05:48.995Z,26.40
2023-01-30T16:08:24.708Z,24.02
2023-01-30T16:10:53.865Z,24.85
2023-01-30T16:13:24.574Z,31.95
2023-01-30T16:16:02.429Z,31.48
2023-01-30T16:18:34.154Z,23.65
2023-01-30T16:21:20.075Z,25.77
2023-01-30T16:24:05.974Z,33.17
2023-01-30T16:26:37.321Z,30.25
2023-01-30T16:29:09.035Z,32.25
2023-01-30T16:31:42.134Z,25.17
2023-01-30T16:34:30.813Z,33.03
2023-01-30T16:37:22.153Z,23.38
2023-01-30T16:40:15.692Z,28.08
2023-01-30T16:42:57.895Z,32.58
2023-01-30T16:45:35.964Z,27.48
2023-01-30T16:48:26.413Z,35.97
2023-01-30T16:51:01.028Z,26.77
2023-01-30T16:53:33.286Z,26.73
2023-01-30T16:56:10.637Z,28.73
2023-01-30T16:58:40.179Z,32.83
2023-01-30T17:01:09.830Z,23.50
2023-01-30T17:03:42.604Z,25.92
2023-01-30T17:06:22.199Z,33.45
2023-01-30T17:08:56.684Z,32.40
2023-01-30T17:11:39.852Z,25.77
2023-01-30T17:14:19.335Z,38.28
2023-01-30T17:17:09.154Z,45.17
2023-01-30T17:19:38.329Z,32.03
2023-01-30T17:22:18.422Z,34.28
2023-01-30T17:24:47.089Z,30.70
2023-01-30T17:27:17.849Z,38.83
2023-01-30T17:29:47.860Z,31.40
2023-01-30T17:32:17.359Z,29.35
2023-01-30T17:34:46.141Z,36.63
2023-01-30T17:37:19.161Z,29.20
2023-01-30T17:39:48.620Z,28.88
2023-01-30T17:42:22.694Z,37.50
2023-01-30T17:44:51.626Z,50.80
2023-01-30T17:47:21.729Z,37.60
2023-01-30T17:49:50.310Z,39.90
2023-01-30T17:52:19.666Z,30.77
2023-01-30T17:54:48.323Z,32.92
2023-01-30T17:57:17.090Z,41.97
2023-01-30T17:59:47.528Z,36.67
2023-01-30T18:02:16.170Z,35.63
2023-01-30T18:04:44.770Z,28.23
2023-01-30T18:07:17.172Z,42.88
2023-01-30T18:09:45.670Z,45.75
2023-01-30T18:12:14.545Z,31.05
2023-01-30T18:14:42.922Z,40.22
2023-01-30T18:17:12.003Z,46.05
2023-01-30T18:19:40.566Z,40.45
2023-01-30T18:22:09.282Z,34.28
2023-01-30T18:24:37.793Z,32.35
2023-01-30T18:27:11.263Z,34.92
2023-01-30T18:29:39.946Z,38.10
2023-01-30T18:32:08.741Z,32.67
2023-01-30T18:34:38.296Z,37.00
2023-01-30T18:37:06.946Z,40.75
2023-01-30T18:39:35.720Z,36.58
2023-01-30T18:42:08.522Z,36.55
2023-01-30T18:44:37.202Z,33.72
2023-01-30T18:47:05.771Z,32.10
2023-01-30T18:49:34.404Z,37.28
2023-01-30T18:52:03.095Z,32.15
2023-01-30T18:54:31.711Z,34.47
2023-01-30T18:57:00.342Z,34.83
2023-01-30T18:59:29.182Z,35.47
2023-01-30T19:01:57.798Z,40.90
2023-01-30T19:04:26.467Z,40.38
2023-01-30T19:09:39.566Z,37.92
2023-01-30T19:12:26.224Z,43.88
2023-01-30T19:14:54.784Z,29.90
2023-01-30T19:17:23.505Z,44.53
2023-01-30T19:19:52.126Z,25.08
2023-01-30T19:22:21.145Z,44.50
2023-01-30T19:24:49.747Z,34.70
2023-01-30T19:27:18.436Z,33.20
2023-01-30T19:29:47.762Z,44.15
2023-01-30T19:32:16.409Z,41.00
2023-01-30T19:34:46.036Z,29.52
2023-01-30T19:37:14.444Z,39.10
2023-01-30T19:39:43.234Z,38.85
2023-01-30T19:42:12.082Z,33.72
2023-01-30T19:44:41.723Z,34.25
2023-01-30T19:47:10.526Z,29.23
2023-01-30T19:49:39.083Z,35.55
2023-01-30T19:52:07.733Z,37.03
2023-01-30T19:54:36.224Z,32.75
2023-01-30T19:57:05.104Z,39.20
2023-01-30T19:59:35.244Z,36.22
2023-01-30T20:02:03.868Z,32.33
2023-01-30T20:04:32.642Z,34.53
2023-01-30T20:07:01.270Z,42.78
2023-01-30T20:09:29.984Z,33.90
2023-01-30T20:11:58.700Z,49.78
2023-01-30T20:14:27.542Z,36.25
2023-01-30T20:16:56.294Z,41.53
2023-01-30T20:19:24.865Z,38.45
2023-01-30T20:21:55.646Z,43.28
2023-01-30T20:24:24.300Z,34.30
2023-01-30T20:26:52.908Z,32.83
2023-01-30T20:29:21.626Z,34.40
2023-01-30T20:31:53.192Z,34.35
2023-01-30T20:34:22.609Z,31.60
2023-01-30T20:36:51.084Z,31.77
2023-01-30T20:39:21.483Z,38.10
2023-01-30T20:41:50.381Z,40.60
2023-01-30T20:44:18.844Z,30.05
2023-01-30T20:46:48.180Z,32.97
2023-01-30T20:49:23.545Z,26.27
2023-01-30T20:51:54.063Z,26.83
2023-01-30T20:54:24.519Z,30.95
2023-01-30T20:56:54.696Z,35.13
2023-01-30T20:59:25.404Z,28.92
2023-01-30T21:01:54.975Z,36.13
2023-01-30T21:04:25.505Z,32.55
2023-01-30T21:06:54.591Z,37.83
2023-01-30T21:09:24.644Z,28.95
2023-01-30T21:11:54.087Z,33.00
2023-01-30T21:14:24.033Z,30.45
2023-01-30T21:16:53.782Z,32.38
2023-01-30T21:19:23.271Z,34.15
2023-01-30T21:21:55.259Z,32.65
2023-01-30T21:24:29.468Z,30.63
2023-01-30T21:26:59.190Z,32.60
2023-01-30T21:29:29.783Z,27.98
2023-01-30T21:31:59.263Z,33.33
2023-01-30T21:34:28.390Z,35.60
2023-01-30T21:37:15.564Z,35.97
2023-01-30T21:40:02.602Z,33.58
2023-01-30T21:42:49.745Z,35.78
2023-01-30T21:45:21.448Z,28.98
2023-01-30T21:47:54.906Z,33.28
2023-01-30T21:50:23.930Z,30.30
2023-01-30T21:52:52.772Z,33.10
2023-01-30T21:55:21.493Z,35.80
2023-01-30T21:57:50.297Z,34.90
2023-01-30T22:00:19.387Z,26.05
2023-01-30T22:02:50.850Z,34.13
2023-01-30T22:05:19.516Z,36.40
2023-01-30T22:07:48.224Z,36.42
2023-01-30T22:10:16.948Z,40.28
2023-01-30T22:12:45.290Z,35.25
2023-01-30T22:15:14.026Z,31.98
2023-01-30T22:17:42.485Z,30.95
2023-01-30T22:20:11.943Z,29.60
2023-01-30T22:22:40.613Z,34.63
2023-01-30T22:25:09.926Z,39.95
2023-01-30T22:27:38.545Z,34.08
2023-01-30T22:30:07.733Z,33.10
2023-01-30T22:32:36.240Z,28.40
2023-01-30T22:35:05.016Z,24.45
2023-01-30T22:37:33.671Z,36.38
2023-01-30T22:40:02.171Z,35.50
2023-01-30T22:42:30.907Z,39.10
2023-01-30T22:44:59.605Z,35.35
2023-01-30T22:47:28.228Z,30.48
2023-01-30T22:49:56.849Z,34.95
2023-01-30T22:52:25.615Z,35.53
2023-01-30T22:54:54.233Z,33.63
2023-01-30T22:57:23.092Z,39.85
2023-01-30T22:59:52.726Z,31.52
2023-01-30T23:02:21.245Z,30.23
2023-01-30T23:04:51.238Z,34.33
2023-01-30T23:07:22.854Z,32.47
2023-01-30T23:09:51.649Z,33.08
2023-01-30T23:12:39.059Z,44.63
2023-01-30T23:15:08.209Z,33.65
2023-01-30T23:17:55.470Z,30.48
2023-01-30T23:20:25.086Z,40.80
2023-01-30T23:22:55.025Z,36.88
2023-01-30T23:25:23.545Z,34.80
2023-01-30T23:27:52.150Z,39.88
2023-01-30T23:30:20.788Z,32.30
2023-01-30T23:32:49.387Z,35.35
2023-01-30T23:35:18.318Z,27.92
2023-01-30T23:38:05.289Z,29.23
2023-01-30T23:40:34.009Z,30.83
2023-01-30T23:43:02.567Z,40.67
2023-01-30T23:45:31.375Z,31.23
2023-01-30T23:48:02.892Z,33.47
2023-01-30T23:50:31.841Z,36.78
2023-01-30T23:53:00.345Z,31.50
2023-01-30T23:55:29.130Z,39.15
2023-01-30T23:58:00.497Z,34.80
